Station: Pirlangimpi

  Atmospheric Gas Attenuation - ITU Rec 676-11   --------------- db/100km ---------------
Date Time Temp RH % AH g/m3 Dew Point Wind Direction Speed kph Gust kph Barometer mB Rainfall Since 9am 24GHz 47GHz 76GHz 122GHz 134GHz 241GHz
07 07:10 19.2 97 15.99 18.7 0 0 1013.1 0 35.1 37.0 68.5 181.0 194.5 674.5
07 07:00 19.5 97 16.28 19 0 0 1011.9 0 35.7 37.3 69.5 183.8 198.0 686.8
07 06:50 19.6 97 16.37 19.1 0 0 1013.1 0 35.9 37.5 69.9 184.8 199.3 691.4
07 06:40 19.6 97 16.37 19.1 0 0 1013.1 0 35.9 37.5 69.9 184.8 199.3 691.4
07 06:30 19.8 97 16.57 19.3 0 0 1011.5 0 36.3 37.7 70.6 186.6 201.7 699.6
07 06:20 20 97 16.76 19.5 0 0 1013.1 0 36.7 38.1 71.4 188.8 204.3 708.9
07 06:10 19.8 97 16.57 19.3 0 0 1013.1 0 36.3 37.8 70.7 186.9 201.9 700.4
07 06:00 19.8 97 16.57 19.3 0 0 1011.2 0 36.3 37.7 70.6 186.6 201.6 699.5
07 05:50 19.6 96 16.2 18.9 0 0 1013.1 0 35.5 37.2 69.1 182.7 196.7 682.2
07 05:40 19.4 96 16.02 18.7 0 0 1013.1 0 35.1 36.9 68.5 180.9 194.4 674.3
07 05:30 19.6 97 16.37 19.1 0 0 1010.9 0 35.9 37.4 69.8 184.5 199.0 690.3
07 05:20 19.7 96 16.3 19 0 0 1013.1 0 35.7 37.3 69.5 183.7 198.0 686.7
07 05:10 19.5 96 16.11 18.8 0 0 1013.1 0 35.3 37.1 68.8 181.8 195.5 678.2
07 04:50 19.5 96 16.11 18.8 0 0 1013.1 0 35.3 37.1 68.8 181.8 195.5 678.2
07 04:40 19.7 96 16.3 19 0 0 1013.1 0 35.7 37.3 69.5 183.7 198.0 686.7
07 04:29 19.8 96 16.4 19.1 0 0 1013.1 0 35.9 37.5 69.9 184.7 199.2 691.2
07 04:20 19.9 96 16.49 19.2 0 0 1013.1 0 36.1 37.6 70.2 185.6 200.4 695.1
07 04:10 19.7 96 16.3 19 0 0 1013.1 0 35.7 37.3 69.5 183.7 198.0 686.7
07 04:00 19.8 96 16.4 19.1 0 0 1010.9 0 35.9 37.4 69.8 184.4 198.9 690.1
07 03:50 20 96 16.59 19.3 0 0 1013.1 0 36.3 37.8 70.6 186.6 201.7 699.6
07 03:40 19.8 96 16.4 19.1 0 0 1013.1 0 35.9 37.5 69.9 184.7 199.2 691.2
07 03:30 20 96 16.59 19.3 0 0 1011 0 36.3 37.7 70.5 186.3 201.4 698.6
07 03:20 20 96 16.59 19.3 0 0 1013.1 0 36.3 37.8 70.6 186.6 201.7 699.6
07 03:10 20.1 96 16.69 19.4 0 0 1013.1 0 36.5 37.9 71.0 187.7 203.0 704.1
07 03:00 20.2 96 16.78 19.5 0 0 1011.2 0 36.7 38.0 71.2 188.3 203.8 707.1
07 02:50 20.3 96 16.88 19.6 0 0 1013.1 0 36.9 38.2 71.7 189.6 205.4 712.6
07 02:40 20.3 96 16.88 19.6 0 0 1013.1 0 36.9 38.2 71.7 189.6 205.4 712.6
07 02:30 20.1 96 16.69 19.4 0 0 1011.4 0 36.5 37.8 70.9 187.4 202.7 703.3
07 02:20 20.3 96 16.88 19.6 0 0 1013.1 0 36.9 38.2 71.7 189.6 205.4 712.6
07 02:10 20.2 96 16.78 19.5 0 0 1013.1 0 36.7 38.0 71.3 188.6 204.1 708.1
07 02:00 20.3 96 16.88 19.6 0 0 1011.6 0 36.9 38.1 71.6 189.4 205.2 711.8
07 01:50 20 95 16.42 19.1 0 0 1013.1 0 35.9 37.4 69.8 184.5 199.0 690.4
07 01:40 20.2 95 16.61 19.3 0 0 1013.1 0 36.3 37.7 70.5 186.4 201.4 698.8
07 01:30 20.2 95 16.61 19.4 2 2 1011.9 0 36.3 37.7 70.5 186.2 201.3 698.3
07 01:20 20.2 94 16.43 19.2 2 2 1013.1 0 35.9 37.4 69.7 184.1 198.6 689.1
07 01:10 20.1 94 16.34 19.1 0 0 1013.1 0 35.8 37.2 69.3 183.2 197.5 685.2
07 01:00 20.3 94 16.53 19.3 2 4 1012.1 0 36.2 37.5 70.0 185.0 199.8 693.1
07 00:50 20.5 94 16.72 19.5 4 4 1013.1 0 36.5 37.8 70.8 187.1 202.3 702.0
07 00:40 20.6 94 16.82 19.6 6 6 1013.1 0 36.7 37.9 71.2 188.1 203.6 706.5
07 00:30 21.1 95 17.5 20.3 0 0 1012 0 38.2 39.0 73.9 195.3 212.7 738.1
07 00:20 21 95 17.4 20.1 0 0 1013.1 0 37.9 38.9 73.5 194.4 211.6 734.2
07 00:10 21 95 17.4 20.1 0 0 1013.1 0 37.9 38.9 73.5 194.4 211.6 734.2
07 00:00 21.2 95 17.6 20.4 0 0 1012.1 0 38.4 39.1 74.2 196.3 214.0 742.6
06 23:50 21.1 94 17.32 20.1 0 0 1013.1 0 37.8 38.7 73.1 193.2 210.0 728.9
06 23:40 21.1 94 17.32 20.1 0 0 1013.1 0 37.8 38.7 73.1 193.2 210.0 728.9
06 23:30 21.2 94 17.42 20.2 0 0 1012.2 0 38.0 38.8 73.4 194.0 211.2 732.9
06 23:20 21.4 94 17.62 20.4 0 0 1013.1 0 38.4 39.1 74.2 196.2 213.9 742.3
06 23:10 21.3 93 17.33 20.1 2 2 1013.1 0 37.8 38.6 72.9 192.8 209.6 727.5
06 23:00 21.5 93 17.54 20.3 2 4 1012.3 0 38.2 38.9 73.7 194.8 212.2 736.5
06 22:50 21.4 93 17.43 20.2 2 2 1013.1 0 38.0 38.7 73.3 193.8 210.9 731.9
06 22:40 21.6 92 17.45 20.2 0 2 1013.1 0 38.0 38.7 73.2 193.5 210.6 731.1
06 22:30 21.7 93 17.74 20.5 0 2 1012.3 0 38.6 39.2 74.4 196.8 214.8 745.4
06 22:20 21.7 92 17.55 20.3 2 2 1013.1 0 38.2 38.8 73.6 194.5 211.9 735.5
06 22:10 21.7 91 17.36 20.1 4 4 1013.1 0 37.8 38.5 72.7 192.1 209.0 725.2
06 22:00 21.8 91 17.46 20.3 0 2 1012 0 38.0 38.6 73.0 193.0 210.1 729.1
06 21:50 21.8 89 17.07 20 0 0 1013.1 0 37.2 37.9 71.2 188.2 204.2 708.7
06 21:40 21.9 89 17.17 20 0 0 1013.1 0 37.4 38.0 71.6 189.2 205.5 713.1
06 21:30 22 88 17.08 19.9 0 0 1011.8 0 37.2 37.7 71.0 187.7 203.6 706.7
06 21:20 22.1 86 16.79 19.6 0 0 1013.1 0 36.5 37.2 69.6 184.0 199.1 691.0
06 21:10 22.4 86 17.08 19.9 0 0 1013.1 0 37.1 37.6 70.7 186.9 202.7 703.6
06 21:00 22.6 85 17.07 19.9 2 4 1011.6 0 37.1 37.4 70.4 186.0 201.8 700.5
06 20:50 22.8 83 16.86 19.7 2 4 1013.1 0 36.6 37.0 69.3 183.2 198.3 688.3
06 20:40 23 82 16.85 19.7 0 0 1013.1 0 36.6 36.9 69.1 182.6 197.6 686.0
06 20:30 23.3 80 16.73 19.7 4 4 1011.2 0 36.3 36.5 68.1 180.1 194.8 676.1
06 20:20 23.8 77 16.56 19.5 2 4 1013.1 0 35.9 36.0 67.0 177.2 191.2 663.9
06 20:10 24.2 77 16.94 19.9 0 2 1013.1 0 36.7 36.6 68.4 180.8 195.8 679.9
06 20:00 24.6 75 16.88 19.9 4 6 1010.9 0 36.5 36.2 67.6 178.8 193.6 672.2
06 19:50 24.9 74 16.94 20.1 4 4 1013.1 0 36.6 36.3 67.8 179.2 194.0 673.7
06 19:40 25.1 74 17.13 20.1 4 6 1013.1 0 37.0 36.5 68.5 181.0 196.3 681.6
06 19:30 25.2 72 16.76 19.8 4 9 1010.6 0 36.2 35.7 66.6 176.0 190.3 660.8
06 19:20 25.4 70 16.48 19.7 6 9 1013.1 0 35.6 35.2 65.3 172.6 186.1 646.1
06 19:10 25.6 70 16.67 19.7 6 9 1013.1 0 36.0 35.5 66.0 174.4 188.3 654.0
06 19:00 25.8 70 16.85 19.9 6 13 1010.3 0 36.3 35.6 66.4 175.6 190.0 660.0
06 18:50 26.1 68 16.65 19.9 6 6 1013.1 0 35.9 35.2 65.5 173.0 186.8 648.7
06 18:40 26.4 66 16.43 19.7 7 7 1013.1 0 35.4 34.7 64.2 169.8 182.9 635.3
06 18:30 26.7 65 16.45 19.6 7 13 1010.1 0 35.4 34.5 63.9 168.9 182.1 632.5
06 18:20 27 64 16.47 19.8 6 7 1013.1 0 35.4 34.6 63.9 168.9 182.1 632.4
06 18:10 27.1 64 16.56 19.7 7 9 1013.1 0 35.6 34.7 64.2 169.8 183.1 636.0
06 18:00 27.3 64 16.75 19.9 11 15 1010 0 36.0 34.8 64.7 171.1 184.9 642.2
06 17:50 27.6 61 16.23 19.6 13 17 1013.1 0 34.9 33.9 62.4 164.9 177.3 615.9
06 17:40 28.3 59 16.31 19.7 9 13 1013.1 0 35.0 33.8 62.2 164.3 176.8 614.2
06 17:30 28.6 59 16.58 19.8 9 17 1010 0 35.5 34.0 62.9 166.3 179.4 623.3
06 17:20 28.5 59 16.49 19.9 11 13 1013.1 0 35.3 34.0 62.8 165.9 178.8 621.2
06 17:10 28.9 58 16.57 19.8 13 17 1013.1 0 35.5 34.0 62.8 166.0 179.0 621.8
06 17:00 29.4 58 17.03 20.3 9 17 1009.8 0 36.4 34.4 64.1 169.6 183.7 638.3
06 16:50 29.3 56 16.35 19.6 4 7 1013.1 0 35.0 33.5 61.6 162.7 175.1 608.2
06 16:40 29.8 55 16.5 20 9 13 1013.1 0 35.2 33.5 61.8 163.3 176.0 611.4
06 16:30 29.6 56 16.62 19.9 9 19 1009.5 0 35.5 33.7 62.2 164.6 177.6 617.1
06 16:20 29.8 54 16.2 19.7 7 11 1013.1 0 34.6 33.0 60.6 160.0 171.9 597.3
06 16:10 30.3 54 16.65 20.2 9 17 1013.1 0 35.5 33.6 62.0 163.9 176.8 614.5
06 16:00 29.3 57 16.64 19.9 11 22 1009.3 0 35.6 33.8 62.6 165.4 178.5 620.3
06 15:50 28.9 58 16.57 19.8 11 15 1013.1 0 35.5 34.0 62.8 166.0 179.0 621.8
06 15:40 28.9 58 16.57 20 9 17 1013.1 0 35.5 34.0 62.8 166.0 179.0 621.8
06 15:30 28.9 59 16.86 20.1 7 13 1009.2 0 36.1 34.3 63.8 168.7 182.5 634.0
06 15:20 29 58 16.66 19.9 6 9 1013.1 0 35.6 34.1 63.1 166.8 180.0 625.3
06 15:10 29.8 55 16.5 20 6 13 1013.1 0 35.2 33.5 61.8 163.3 176.0 611.4
06 15:00 30.2 55 16.86 20.4 9 20 1009.5 0 36.0 33.8 62.8 165.9 179.4 623.6
06 14:50 30.1 55 16.77 20.3 11 17 1013.1 0 35.8 33.8 62.7 165.7 178.9 621.8
06 14:40 30.3 58 17.88 21.1 7 9 1013.1 0 38.1 35.6 67.2 177.6 193.7 673.2
06 14:30 29.1 59 17.04 20.3 7 13 1009.9 0 36.4 34.6 64.4 170.4 184.6 641.3

Last Refresh: 07-Aug-2020 07:17:06

Most of the information presented on this site is sourced from the Bureau of Meteorology.  Copyright in all material sourced from the Bureau of Meteorology resides with the Commonwealth of Australia.